Brandon, Canada
Current Conditions -  °F | °C
As of 10:00 AM on Saturday 25 Oct 2014 (Local Time) from CYBR Reporting Station
Few Clouds Few Clouds  
Wind Chill: 33°   Ceiling: Unl
Heat Index: 41°   Visibility: 15mi
Dew Point: 30°   Wind: 16mph
Humidity: 65%   Direction: 270°W
Pressure: 30.05"   Gusts: NA
Location:  49.85°N, 99.96°W
Report Text: CYBR 251500Z 27014KT 15SM FEW250 05/M01 A3005 RMK CI1 SLP191
Loading
Personal Weather Stations






























Interactive Weather Map
Tropical Storm Tracking
New forecast layout! Learn more

10-Day Weather Forecast

Advertisements
Track Severe Weather on mobile